sensor_id;sensor_type;location;lat;lon;timestamp;P1;durP1;ratioP1;P2;durP2;ratioP2
3337;SDS011;1682;49.286;10.788;2023-04-23T00:02:10;6.50;;;4.80;;
3337;SDS011;1682;49.286;10.788;2023-04-23T00:04:38;3.50;;;3.20;;
3337;SDS011;1682;49.286;10.788;2023-04-23T00:07:05;4.47;;;4.17;;
3337;SDS011;1682;49.286;10.788;2023-04-23T00:09:33;4.13;;;3.73;;
3337;SDS011;1682;49.286;10.788;2023-04-23T00:12:01;3.77;;;3.17;;
3337;SDS011;1682;49.286;10.788;2023-04-23T00:14:29;3.40;;;3.10;;
3337;SDS011;1682;49.286;10.788;2023-04-23T00:16:56;2.50;;;2.30;;
3337;SDS011;1682;49.286;10.788;2023-04-23T00:19:25;3.67;;;3.20;;
3337;SDS011;1682;49.286;10.788;2023-04-23T00:21:52;3.60;;;3.30;;
3337;SDS011;1682;49.286;10.788;2023-04-23T00:24:19;4.40;;;3.17;;
3337;SDS011;1682;49.286;10.788;2023-04-23T00:26:46;3.20;;;2.90;;
3337;SDS011;1682;49.286;10.788;2023-04-23T00:29:14;4.10;;;3.77;;
3337;SDS011;1682;49.286;10.788;2023-04-23T00:31:41;5.57;;;2.97;;
3337;SDS011;1682;49.286;10.788;2023-04-23T00:34:08;5.83;;;2.63;;
3337;SDS011;1682;49.286;10.788;2023-04-23T00:36:37;3.17;;;2.97;;
3337;SDS011;1682;49.286;10.788;2023-04-23T00:39:04;2.70;;;2.50;;
3337;SDS011;1682;49.286;10.788;2023-04-23T00:41:31;3.47;;;2.70;;
3337;SDS011;1682;49.286;10.788;2023-04-23T00:43:59;3.80;;;2.60;;
3337;SDS011;1682;49.286;10.788;2023-04-23T00:46:27;3.17;;;2.87;;
3337;SDS011;1682;49.286;10.788;2023-04-23T00:48:54;3.30;;;3.00;;
3337;SDS011;1682;49.286;10.788;2023-04-23T00:51:21;3.13;;;2.93;;
3337;SDS011;1682;49.286;10.788;2023-04-23T00:53:50;2.63;;;2.50;;
3337;SDS011;1682;49.286;10.788;2023-04-23T00:56:17;3.00;;;2.80;;
3337;SDS011;1682;49.286;10.788;2023-04-23T00:58:47;2.93;;;2.73;;
3337;SDS011;1682;49.286;10.788;2023-04-23T01:01:14;6.30;;;3.20;;
3337;SDS011;1682;49.286;10.788;2023-04-23T01:03:44;3.40;;;2.77;;
3337;SDS011;1682;49.286;10.788;2023-04-23T01:06:12;4.17;;;2.80;;
3337;SDS011;1682;49.286;10.788;2023-04-23T01:08:39;2.53;;;2.33;;
3337;SDS011;1682;49.286;10.788;2023-04-23T01:11:10;3.83;;;3.37;;
3337;SDS011;1682;49.286;10.788;2023-04-23T01:13:40;2.90;;;2.70;;
3337;SDS011;1682;49.286;10.788;2023-04-23T01:16:07;4.67;;;2.70;;
3337;SDS011;1682;49.286;10.788;2023-04-23T01:18:35;6.30;;;2.97;;
3337;SDS011;1682;49.286;10.788;2023-04-23T01:21:02;2.93;;;2.63;;
3337;SDS011;1682;49.286;10.788;2023-04-23T01:23:31;3.67;;;3.37;;
3337;SDS011;1682;49.286;10.788;2023-04-23T01:25:58;6.00;;;4.30;;
3337;SDS011;1682;49.286;10.788;2023-04-23T01:28:25;4.00;;;3.70;;
3337;SDS011;1682;49.286;10.788;2023-04-23T01:30:53;4.30;;;2.77;;
3337;SDS011;1682;49.286;10.788;2023-04-23T01:33:20;5.47;;;2.73;;
3337;SDS011;1682;49.286;10.788;2023-04-23T01:35:47;3.53;;;2.70;;
3337;SDS011;1682;49.286;10.788;2023-04-23T01:38:15;3.30;;;3.00;;
3337;SDS011;1682;49.286;10.788;2023-04-23T01:40:44;2.83;;;2.57;;
3337;SDS011;1682;49.286;10.788;2023-04-23T01:43:11;3.03;;;2.83;;
3337;SDS011;1682;49.286;10.788;2023-04-23T01:45:39;3.47;;;2.77;;
3337;SDS011;1682;49.286;10.788;2023-04-23T01:48:06;2.37;;;2.17;;
3337;SDS011;1682;49.286;10.788;2023-04-23T01:50:34;2.37;;;2.20;;
3337;SDS011;1682;49.286;10.788;2023-04-23T01:53:01;2.67;;;2.47;;
3337;SDS011;1682;49.286;10.788;2023-04-23T01:55:29;3.03;;;2.80;;
3337;SDS011;1682;49.286;10.788;2023-04-23T01:57:57;3.10;;;2.90;;
3337;SDS011;1682;49.286;10.788;2023-04-23T02:00:25;3.50;;;3.20;;
3337;SDS011;1682;49.286;10.788;2023-04-23T02:02:52;3.13;;;2.87;;
3337;SDS011;1682;49.286;10.788;2023-04-23T02:05:19;2.60;;;2.50;;
3337;SDS011;1682;49.286;10.788;2023-04-23T02:07:48;3.00;;;2.80;;
3337;SDS011;1682;49.286;10.788;2023-04-23T02:10:15;3.13;;;2.83;;
3337;SDS011;1682;49.286;10.788;2023-04-23T02:12:42;4.33;;;2.97;;
3337;SDS011;1682;49.286;10.788;2023-04-23T02:15:11;2.80;;;2.60;;
3337;SDS011;1682;49.286;10.788;2023-04-23T02:17:39;4.43;;;2.70;;
3337;SDS011;1682;49.286;10.788;2023-04-23T02:20:06;2.67;;;2.47;;
3337;SDS011;1682;49.286;10.788;2023-04-23T02:22:34;2.90;;;2.80;;
3337;SDS011;1682;49.286;10.788;2023-04-23T02:25:02;2.90;;;2.70;;
3337;SDS011;1682;49.286;10.788;2023-04-23T02:27:30;3.50;;;2.40;;
3337;SDS011;1682;49.286;10.788;2023-04-23T02:29:58;3.30;;;2.67;;
3337;SDS011;1682;49.286;10.788;2023-04-23T02:32:27;3.13;;;2.93;;
3337;SDS011;1682;49.286;10.788;2023-04-23T02:34:54;3.17;;;2.97;;
3337;SDS011;1682;49.286;10.788;2023-04-23T02:37:23;3.53;;;2.83;;
3337;SDS011;1682;49.286;10.788;2023-04-23T02:39:50;3.60;;;3.37;;
3337;SDS011;1682;49.286;10.788;2023-04-23T02:42:18;4.40;;;2.90;;
3337;SDS011;1682;49.286;10.788;2023-04-23T02:44:45;4.80;;;3.03;;
3337;SDS011;1682;49.286;10.788;2023-04-23T02:47:12;6.00;;;3.23;;
3337;SDS011;1682;49.286;10.788;2023-04-23T02:49:41;3.80;;;3.50;;
3337;SDS011;1682;49.286;10.788;2023-04-23T02:52:08;3.20;;;3.00;;
3337;SDS011;1682;49.286;10.788;2023-04-23T02:54:35;3.60;;;2.70;;
3337;SDS011;1682;49.286;10.788;2023-04-23T02:57:02;3.60;;;3.33;;
3337;SDS011;1682;49.286;10.788;2023-04-23T02:59:30;3.40;;;3.10;;
3337;SDS011;1682;49.286;10.788;2023-04-23T03:01:57;2.70;;;2.60;;
3337;SDS011;1682;49.286;10.788;2023-04-23T03:04:24;3.87;;;3.47;;
3337;SDS011;1682;49.286;10.788;2023-04-23T03:06:53;3.47;;;3.23;;
3337;SDS011;1682;49.286;10.788;2023-04-23T03:09:20;3.90;;;3.60;;
3337;SDS011;1682;49.286;10.788;2023-04-23T03:11:47;3.70;;;3.00;;
3337;SDS011;1682;49.286;10.788;2023-04-23T03:14:15;7.43;;;3.10;;
3337;SDS011;1682;49.286;10.788;2023-04-23T03:16:42;3.20;;;3.00;;
3337;SDS011;1682;49.286;10.788;2023-04-23T03:19:09;3.23;;;3.03;;
3337;SDS011;1682;49.286;10.788;2023-04-23T03:21:36;4.23;;;3.43;;
3337;SDS011;1682;49.286;10.788;2023-04-23T03:24:05;4.27;;;3.67;;
3337;SDS011;1682;49.286;10.788;2023-04-23T03:26:32;2.97;;;2.67;;
3337;SDS011;1682;49.286;10.788;2023-04-23T03:29:00;2.80;;;2.60;;
3337;SDS011;1682;49.286;10.788;2023-04-23T03:31:27;3.03;;;2.83;;
3337;SDS011;1682;49.286;10.788;2023-04-23T03:33:54;4.03;;;3.37;;
3337;SDS011;1682;49.286;10.788;2023-04-23T03:36:21;4.37;;;3.97;;
3337;SDS011;1682;49.286;10.788;2023-04-23T03:38:48;3.70;;;3.40;;
3337;SDS011;1682;49.286;10.788;2023-04-23T03:41:17;6.73;;;3.97;;
3337;SDS011;1682;49.286;10.788;2023-04-23T03:43:44;4.40;;;4.00;;
3337;SDS011;1682;49.286;10.788;2023-04-23T03:46:11;4.47;;;4.17;;
3337;SDS011;1682;49.286;10.788;2023-04-23T03:48:38;5.47;;;4.87;;
3337;SDS011;1682;49.286;10.788;2023-04-23T03:51:06;6.17;;;5.63;;
3337;SDS011;1682;49.286;10.788;2023-04-23T03:53:34;5.77;;;5.27;;
3337;SDS011;1682;49.286;10.788;2023-04-23T03:56:01;5.80;;;5.30;;
3337;SDS011;1682;49.286;10.788;2023-04-23T03:58:30;6.30;;;5.70;;
3337;SDS011;1682;49.286;10.788;2023-04-23T04:00:57;6.30;;;5.70;;
3337;SDS011;1682;49.286;10.788;2023-04-23T04:03:24;7.63;;;5.90;;
3337;SDS011;1682;49.286;10.788;2023-04-23T04:05:53;8.77;;;5.87;;
3337;SDS011;1682;49.286;10.788;2023-04-23T04:08:20;6.10;;;5.50;;
3337;SDS011;1682;49.286;10.788;2023-04-23T04:10:47;6.67;;;5.93;;
3337;SDS011;1682;49.286;10.788;2023-04-23T04:13:15;6.83;;;6.33;;
3337;SDS011;1682;49.286;10.788;2023-04-23T04:15:43;6.77;;;6.17;;
3337;SDS011;1682;49.286;10.788;2023-04-23T04:18:10;5.70;;;5.13;;
3337;SDS011;1682;49.286;10.788;2023-04-23T04:20:38;5.57;;;5.17;;
3337;SDS011;1682;49.286;10.788;2023-04-23T04:23:08;6.07;;;5.53;;
3337;SDS011;1682;49.286;10.788;2023-04-23T04:25:35;9.73;;;5.37;;
3337;SDS011;1682;49.286;10.788;2023-04-23T04:28:04;9.50;;;6.90;;
3337;SDS011;1682;49.286;10.788;2023-04-23T04:30:33;6.67;;;6.00;;
3337;SDS011;1682;49.286;10.788;2023-04-23T04:33:03;7.43;;;6.77;;
3337;SDS011;1682;49.286;10.788;2023-04-23T04:35:30;7.07;;;6.30;;
3337;SDS011;1682;49.286;10.788;2023-04-23T04:37:58;7.10;;;5.90;;
3337;SDS011;1682;49.286;10.788;2023-04-23T04:40:25;5.77;;;5.27;;
3337;SDS011;1682;49.286;10.788;2023-04-23T04:42:52;6.10;;;5.50;;
3337;SDS011;1682;49.286;10.788;2023-04-23T04:45:21;6.97;;;5.07;;
3337;SDS011;1682;49.286;10.788;2023-04-23T04:47:50;11.10;;;5.87;;
3337;SDS011;1682;49.286;10.788;2023-04-23T04:50:18;7.30;;;5.20;;
3337;SDS011;1682;49.286;10.788;2023-04-23T04:52:46;5.70;;;5.30;;
3337;SDS011;1682;49.286;10.788;2023-04-23T04:55:13;6.60;;;6.00;;
3337;SDS011;1682;49.286;10.788;2023-04-23T04:57:40;6.70;;;5.40;;
3337;SDS011;1682;49.286;10.788;2023-04-23T05:00:18;10.90;;;8.80;;
3337;SDS011;1682;49.286;10.788;2023-04-23T05:02:46;7.57;;;6.30;;
3337;SDS011;1682;49.286;10.788;2023-04-23T05:05:14;7.00;;;6.20;;
3337;SDS011;1682;49.286;10.788;2023-04-23T05:07:42;5.67;;;5.03;;
3337;SDS011;1682;49.286;10.788;2023-04-23T05:10:10;8.67;;;7.40;;
3337;SDS011;1682;49.286;10.788;2023-04-23T05:12:37;8.87;;;7.97;;
3337;SDS011;1682;49.286;10.788;2023-04-23T05:15:06;7.33;;;6.73;;
3337;SDS011;1682;49.286;10.788;2023-04-23T05:17:33;6.03;;;5.23;;
3337;SDS011;1682;49.286;10.788;2023-04-23T05:20:00;5.43;;;4.87;;
3337;SDS011;1682;49.286;10.788;2023-04-23T05:22:28;7.13;;;4.80;;
3337;SDS011;1682;49.286;10.788;2023-04-23T05:24:57;3.90;;;3.60;;
3337;SDS011;1682;49.286;10.788;2023-04-23T05:27:25;4.90;;;4.43;;
3337;SDS011;1682;49.286;10.788;2023-04-23T05:29:52;5.03;;;4.60;;
3337;SDS011;1682;49.286;10.788;2023-04-23T05:32:19;4.60;;;4.20;;
3337;SDS011;1682;49.286;10.788;2023-04-23T05:34:46;4.53;;;4.23;;
3337;SDS011;1682;49.286;10.788;2023-04-23T05:37:14;4.10;;;3.80;;
3337;SDS011;1682;49.286;10.788;2023-04-23T05:39:41;4.90;;;4.50;;
3337;SDS011;1682;49.286;10.788;2023-04-23T05:42:09;4.03;;;3.73;;
3337;SDS011;1682;49.286;10.788;2023-04-23T05:44:37;4.37;;;4.07;;
3337;SDS011;1682;49.286;10.788;2023-04-23T05:47:05;5.63;;;5.33;;
3337;SDS011;1682;49.286;10.788;2023-04-23T05:49:33;5.77;;;5.30;;
3337;SDS011;1682;49.286;10.788;2023-04-23T05:52:01;6.45;;;5.85;;
3337;SDS011;1682;49.286;10.788;2023-04-23T05:54:28;7.73;;;5.13;;
3337;SDS011;1682;49.286;10.788;2023-04-23T05:56:55;7.20;;;6.60;;
3337;SDS011;1682;49.286;10.788;2023-04-23T05:59:24;8.50;;;7.87;;
3337;SDS011;1682;49.286;10.788;2023-04-23T06:01:51;9.60;;;7.50;;
3337;SDS011;1682;49.286;10.788;2023-04-23T06:04:18;7.03;;;6.00;;
3337;SDS011;1682;49.286;10.788;2023-04-23T06:06:46;5.30;;;4.80;;
3337;SDS011;1682;49.286;10.788;2023-04-23T06:09:13;6.90;;;6.20;;
3337;SDS011;1682;49.286;10.788;2023-04-23T06:11:40;6.80;;;6.10;;
3337;SDS011;1682;49.286;10.788;2023-04-23T06:14:07;6.20;;;5.20;;
3337;SDS011;1682;49.286;10.788;2023-04-23T06:16:36;4.60;;;4.30;;
3337;SDS011;1682;49.286;10.788;2023-04-23T06:19:03;5.77;;;5.33;;
3337;SDS011;1682;49.286;10.788;2023-04-23T06:21:30;5.50;;;5.00;;
3337;SDS011;1682;49.286;10.788;2023-04-23T06:23:57;6.23;;;5.63;;
3337;SDS011;1682;49.286;10.788;2023-04-23T06:26:25;5.05;;;4.65;;
3337;SDS011;1682;49.286;10.788;2023-04-23T06:28:52;9.07;;;8.27;;
3337;SDS011;1682;49.286;10.788;2023-04-23T06:31:20;19.70;;;17.70;;
3337;SDS011;1682;49.286;10.788;2023-04-23T06:33:48;14.37;;;10.67;;
3337;SDS011;1682;49.286;10.788;2023-04-23T06:36:16;21.80;;;17.87;;
3337;SDS011;1682;49.286;10.788;2023-04-23T06:38:43;10.77;;;9.60;;
3337;SDS011;1682;49.286;10.788;2023-04-23T06:41:10;11.70;;;10.60;;
3337;SDS011;1682;49.286;10.788;2023-04-23T06:43:37;13.83;;;9.90;;
3337;SDS011;1682;49.286;10.788;2023-04-23T06:46:05;6.20;;;5.53;;
3337;SDS011;1682;49.286;10.788;2023-04-23T06:48:32;9.60;;;8.70;;
3337;SDS011;1682;49.286;10.788;2023-04-23T06:51:01;6.53;;;6.03;;
3337;SDS011;1682;49.286;10.788;2023-04-23T06:53:28;7.70;;;7.00;;
3337;SDS011;1682;49.286;10.788;2023-04-23T06:55:56;9.60;;;7.70;;
3337;SDS011;1682;49.286;10.788;2023-04-23T06:58:23;8.23;;;7.37;;
3337;SDS011;1682;49.286;10.788;2023-04-23T07:00:55;6.00;;;5.00;;
3337;SDS011;1682;49.286;10.788;2023-04-23T07:03:24;8.00;;;7.30;;
3337;SDS011;1682;49.286;10.788;2023-04-23T07:05:51;7.37;;;6.73;;
3337;SDS011;1682;49.286;10.788;2023-04-23T07:08:20;7.37;;;6.50;;
3337;SDS011;1682;49.286;10.788;2023-04-23T07:10:47;16.50;;;12.80;;
3337;SDS011;1682;49.286;10.788;2023-04-23T07:13:14;8.97;;;7.97;;
3337;SDS011;1682;49.286;10.788;2023-04-23T07:15:42;3.83;;;3.53;;
3337;SDS011;1682;49.286;10.788;2023-04-23T07:18:09;3.83;;;3.53;;
3337;SDS011;1682;49.286;10.788;2023-04-23T07:20:36;3.80;;;3.50;;
3337;SDS011;1682;49.286;10.788;2023-04-23T07:23:04;3.93;;;3.53;;
3337;SDS011;1682;49.286;10.788;2023-04-23T07:25:32;2.93;;;2.63;;
3337;SDS011;1682;49.286;10.788;2023-04-23T07:28:00;3.90;;;3.60;;
3337;SDS011;1682;49.286;10.788;2023-04-23T07:30:27;3.50;;;3.20;;
3337;SDS011;1682;49.286;10.788;2023-04-23T07:32:54;3.20;;;2.97;;
3337;SDS011;1682;49.286;10.788;2023-04-23T07:35:21;2.87;;;2.67;;
3337;SDS011;1682;49.286;10.788;2023-04-23T07:37:49;4.20;;;3.07;;
3337;SDS011;1682;49.286;10.788;2023-04-23T07:40:19;2.47;;;2.30;;
3337;SDS011;1682;49.286;10.788;2023-04-23T07:42:48;4.23;;;2.70;;
3337;SDS011;1682;49.286;10.788;2023-04-23T07:45:15;5.07;;;3.63;;
3337;SDS011;1682;49.286;10.788;2023-04-23T07:47:43;4.30;;;3.40;;
3337;SDS011;1682;49.286;10.788;2023-04-23T07:50:11;2.97;;;2.77;;
3337;SDS011;1682;49.286;10.788;2023-04-23T07:52:38;3.30;;;2.90;;
3337;SDS011;1682;49.286;10.788;2023-04-23T07:55:06;2.97;;;2.77;;
3337;SDS011;1682;49.286;10.788;2023-04-23T07:57:33;3.23;;;2.93;;
3337;SDS011;1682;49.286;10.788;2023-04-23T08:00:02;2.50;;;2.30;;
3337;SDS011;1682;49.286;10.788;2023-04-23T08:02:29;2.77;;;2.57;;
3337;SDS011;1682;49.286;10.788;2023-04-23T08:04:57;5.20;;;4.70;;
3337;SDS011;1682;49.286;10.788;2023-04-23T08:07:25;3.17;;;2.97;;
3337;SDS011;1682;49.286;10.788;2023-04-23T08:09:53;7.40;;;6.27;;
3337;SDS011;1682;49.286;10.788;2023-04-23T08:12:23;7.43;;;5.93;;
3337;SDS011;1682;49.286;10.788;2023-04-23T08:14:50;4.33;;;3.90;;
3337;SDS011;1682;49.286;10.788;2023-04-23T08:17:19;2.40;;;2.20;;
3337;SDS011;1682;49.286;10.788;2023-04-23T08:19:46;3.63;;;3.00;;
3337;SDS011;1682;49.286;10.788;2023-04-23T08:22:13;2.70;;;2.60;;
3337;SDS011;1682;49.286;10.788;2023-04-23T08:24:41;4.50;;;4.10;;
3337;SDS011;1682;49.286;10.788;2023-04-23T08:27:09;3.40;;;2.80;;
3337;SDS011;1682;49.286;10.788;2023-04-23T08:29:39;3.90;;;3.60;;
3337;SDS011;1682;49.286;10.788;2023-04-23T08:32:07;3.30;;;3.00;;
3337;SDS011;1682;49.286;10.788;2023-04-23T08:34:36;3.17;;;2.97;;
3337;SDS011;1682;49.286;10.788;2023-04-23T08:37:05;9.20;;;5.40;;
3337;SDS011;1682;49.286;10.788;2023-04-23T08:39:32;3.73;;;3.43;;
3337;SDS011;1682;49.286;10.788;2023-04-23T08:42:03;3.90;;;3.60;;
3337;SDS011;1682;49.286;10.788;2023-04-23T08:44:31;3.23;;;2.63;;
3337;SDS011;1682;49.286;10.788;2023-04-23T08:46:58;5.10;;;3.73;;
3337;SDS011;1682;49.286;10.788;2023-04-23T08:49:28;3.50;;;3.20;;
3337;SDS011;1682;49.286;10.788;2023-04-23T08:52:00;3.03;;;2.50;;
3337;SDS011;1682;49.286;10.788;2023-04-23T08:54:30;2.03;;;1.93;;
3337;SDS011;1682;49.286;10.788;2023-04-23T08:56:58;2.50;;;2.30;;
3337;SDS011;1682;49.286;10.788;2023-04-23T08:59:26;2.70;;;2.50;;
3337;SDS011;1682;49.286;10.788;2023-04-23T09:01:55;2.20;;;2.10;;
3337;SDS011;1682;49.286;10.788;2023-04-23T09:04:25;4.80;;;3.00;;
3337;SDS011;1682;49.286;10.788;2023-04-23T09:06:52;2.37;;;2.17;;
3337;SDS011;1682;49.286;10.788;2023-04-23T09:09:22;3.10;;;2.50;;
3337;SDS011;1682;49.286;10.788;2023-04-23T09:11:50;4.07;;;3.17;;
3337;SDS011;1682;49.286;10.788;2023-04-23T09:14:18;2.00;;;1.90;;
3337;SDS011;1682;49.286;10.788;2023-04-23T09:16:47;2.03;;;1.93;;
3337;SDS011;1682;49.286;10.788;2023-04-23T09:19:14;2.30;;;1.70;;
3337;SDS011;1682;49.286;10.788;2023-04-23T09:21:41;4.90;;;2.50;;
3337;SDS011;1682;49.286;10.788;2023-04-23T09:24:10;3.57;;;2.47;;
3337;SDS011;1682;49.286;10.788;2023-04-23T09:26:44;3.73;;;2.60;;
3337;SDS011;1682;49.286;10.788;2023-04-23T09:29:13;4.20;;;1.70;;
3337;SDS011;1682;49.286;10.788;2023-04-23T09:31:43;3.67;;;3.37;;
3337;SDS011;1682;49.286;10.788;2023-04-23T09:34:11;4.07;;;3.20;;
3337;SDS011;1682;49.286;10.788;2023-04-23T09:36:42;3.40;;;2.80;;
3337;SDS011;1682;49.286;10.788;2023-04-23T09:39:10;2.63;;;2.43;;
3337;SDS011;1682;49.286;10.788;2023-04-23T09:41:37;2.80;;;2.60;;
3337;SDS011;1682;49.286;10.788;2023-04-23T09:44:06;2.53;;;2.33;;
3337;SDS011;1682;49.286;10.788;2023-04-23T09:46:34;2.30;;;2.20;;
3337;SDS011;1682;49.286;10.788;2023-04-23T09:49:02;2.83;;;2.63;;
3337;SDS011;1682;49.286;10.788;2023-04-23T09:51:31;2.07;;;1.80;;
3337;SDS011;1682;49.286;10.788;2023-04-23T09:54:00;2.23;;;2.03;;
3337;SDS011;1682;49.286;10.788;2023-04-23T09:56:28;2.83;;;2.63;;
3337;SDS011;1682;49.286;10.788;2023-04-23T09:58:56;1.90;;;1.80;;
3337;SDS011;1682;49.286;10.788;2023-04-23T10:01:29;2.80;;;2.60;;
3337;SDS011;1682;49.286;10.788;2023-04-23T10:03:56;2.30;;;2.00;;
3337;SDS011;1682;49.286;10.788;2023-04-23T10:06:27;3.30;;;2.60;;
3337;SDS011;1682;49.286;10.788;2023-04-23T10:08:55;3.23;;;2.43;;
3337;SDS011;1682;49.286;10.788;2023-04-23T10:11:23;2.37;;;2.17;;
3337;SDS011;1682;49.286;10.788;2023-04-23T10:13:51;1.80;;;1.70;;
3337;SDS011;1682;49.286;10.788;2023-04-23T10:16:21;1.60;;;1.50;;
3337;SDS011;1682;49.286;10.788;2023-04-23T10:18:50;2.20;;;1.50;;
3337;SDS011;1682;49.286;10.788;2023-04-23T10:21:19;2.00;;;1.70;;
3337;SDS011;1682;49.286;10.788;2023-04-23T10:23:50;2.60;;;1.80;;
3337;SDS011;1682;49.286;10.788;2023-04-23T10:26:17;1.80;;;1.70;;
3337;SDS011;1682;49.286;10.788;2023-04-23T10:28:49;2.30;;;2.20;;
3337;SDS011;1682;49.286;10.788;2023-04-23T10:31:18;1.83;;;1.40;;
3337;SDS011;1682;49.286;10.788;2023-04-23T10:33:46;4.07;;;1.70;;
3337;SDS011;1682;49.286;10.788;2023-04-23T10:36:16;1.60;;;1.50;;
3337;SDS011;1682;49.286;10.788;2023-04-23T10:38:43;3.70;;;1.70;;
3337;SDS011;1682;49.286;10.788;2023-04-23T10:41:11;1.73;;;1.63;;
3337;SDS011;1682;49.286;10.788;2023-04-23T10:43:43;1.60;;;1.50;;
3337;SDS011;1682;49.286;10.788;2023-04-23T10:49:03;1.40;;;1.17;;
3337;SDS011;1682;49.286;10.788;2023-04-23T10:51:35;2.23;;;2.10;;
3337;SDS011;1682;49.286;10.788;2023-04-23T10:54:03;3.00;;;1.90;;
3337;SDS011;1682;49.286;10.788;2023-04-23T10:56:30;2.87;;;2.63;;
3337;SDS011;1682;49.286;10.788;2023-04-23T10:58:58;7.47;;;5.80;;
3337;SDS011;1682;49.286;10.788;2023-04-23T11:01:26;2.00;;;1.90;;
3337;SDS011;1682;49.286;10.788;2023-04-23T11:03:55;2.10;;;2.00;;
3337;SDS011;1682;49.286;10.788;2023-04-23T11:11:50;3.00;;;2.27;;
3337;SDS011;1682;49.286;10.788;2023-04-23T11:14:18;2.77;;;2.57;;
3337;SDS011;1682;49.286;10.788;2023-04-23T11:16:46;3.57;;;3.37;;
3337;SDS011;1682;49.286;10.788;2023-04-23T11:19:14;3.07;;;2.30;;
3337;SDS011;1682;49.286;10.788;2023-04-23T11:22:00;2.37;;;2.27;;
3337;SDS011;1682;49.286;10.788;2023-04-23T11:24:29;2.40;;;2.30;;
3337;SDS011;1682;49.286;10.788;2023-04-23T11:26:58;1.63;;;1.53;;
3337;SDS011;1682;49.286;10.788;2023-04-23T11:29:27;2.50;;;2.40;;
3337;SDS011;1682;49.286;10.788;2023-04-23T11:31:54;2.23;;;2.13;;
3337;SDS011;1682;49.286;10.788;2023-04-23T11:34:22;1.57;;;1.47;;
3337;SDS011;1682;49.286;10.788;2023-04-23T11:36:51;3.40;;;2.20;;
3337;SDS011;1682;49.286;10.788;2023-04-23T11:39:19;2.27;;;2.07;;
3337;SDS011;1682;49.286;10.788;2023-04-23T11:41:55;1.47;;;1.37;;
3337;SDS011;1682;49.286;10.788;2023-04-23T11:44:28;2.00;;;1.80;;
3337;SDS011;1682;49.286;10.788;2023-04-23T11:46:57;1.47;;;1.00;;
3337;SDS011;1682;49.286;10.788;2023-04-23T11:49:25;2.50;;;1.37;;
3337;SDS011;1682;49.286;10.788;2023-04-23T11:51:57;1.30;;;1.20;;
3337;SDS011;1682;49.286;10.788;2023-04-23T11:54:26;1.13;;;1.07;;
3337;SDS011;1682;49.286;10.788;2023-04-23T11:56:54;1.17;;;1.13;;
3337;SDS011;1682;49.286;10.788;2023-04-23T11:59:22;1.60;;;1.50;;
3337;SDS011;1682;49.286;10.788;2023-04-23T12:01:52;2.13;;;1.07;;
3337;SDS011;1682;49.286;10.788;2023-04-23T12:04:20;2.20;;;2.10;;
3337;SDS011;1682;49.286;10.788;2023-04-23T12:06:48;1.37;;;1.20;;
3337;SDS011;1682;49.286;10.788;2023-04-23T12:09:16;2.27;;;2.07;;
3337;SDS011;1682;49.286;10.788;2023-04-23T12:11:44;1.30;;;1.20;;
3337;SDS011;1682;49.286;10.788;2023-04-23T12:14:11;1.07;;;0.93;;
3337;SDS011;1682;49.286;10.788;2023-04-23T12:16:39;1.30;;;1.20;;
3337;SDS011;1682;49.286;10.788;2023-04-23T12:19:08;0.93;;;0.93;;
3337;SDS011;1682;49.286;10.788;2023-04-23T12:21:46;0.93;;;0.90;;
3337;SDS011;1682;49.286;10.788;2023-04-23T12:24:13;1.00;;;1.00;;
3337;SDS011;1682;49.286;10.788;2023-04-23T12:26:41;2.33;;;2.23;;
3337;SDS011;1682;49.286;10.788;2023-04-23T12:29:08;1.10;;;1.00;;
3337;SDS011;1682;49.286;10.788;2023-04-23T12:31:38;1.00;;;1.00;;
3337;SDS011;1682;49.286;10.788;2023-04-23T12:34:06;1.40;;;1.30;;
3337;SDS011;1682;49.286;10.788;2023-04-23T12:36:36;1.37;;;1.27;;
3337;SDS011;1682;49.286;10.788;2023-04-23T12:39:18;1.60;;;1.50;;
3337;SDS011;1682;49.286;10.788;2023-04-23T12:41:45;2.20;;;2.10;;
3337;SDS011;1682;49.286;10.788;2023-04-23T12:44:12;1.23;;;1.13;;
3337;SDS011;1682;49.286;10.788;2023-04-23T12:46:39;1.37;;;1.27;;
3337;SDS011;1682;49.286;10.788;2023-04-23T12:49:07;2.93;;;1.63;;
3337;SDS011;1682;49.286;10.788;2023-04-23T12:51:38;2.40;;;1.70;;
3337;SDS011;1682;49.286;10.788;2023-04-23T12:54:05;1.80;;;1.70;;
3337;SDS011;1682;49.286;10.788;2023-04-23T12:56:32;3.30;;;2.00;;
3337;SDS011;1682;49.286;10.788;2023-04-23T12:59:00;1.87;;;1.77;;
3337;SDS011;1682;49.286;10.788;2023-04-23T13:01:29;2.13;;;2.00;;
3337;SDS011;1682;49.286;10.788;2023-04-23T13:03:57;2.03;;;1.77;;
3337;SDS011;1682;49.286;10.788;2023-04-23T13:06:24;2.43;;;2.03;;
3337;SDS011;1682;49.286;10.788;2023-04-23T13:08:54;2.03;;;1.93;;
3337;SDS011;1682;49.286;10.788;2023-04-23T13:11:24;2.73;;;2.53;;
3337;SDS011;1682;49.286;10.788;2023-04-23T13:13:52;1.73;;;1.63;;
3337;SDS011;1682;49.286;10.788;2023-04-23T13:16:19;3.30;;;1.73;;
3337;SDS011;1682;49.286;10.788;2023-04-23T13:18:46;1.33;;;1.23;;
3337;SDS011;1682;49.286;10.788;2023-04-23T13:21:15;1.67;;;1.00;;
3337;SDS011;1682;49.286;10.788;2023-04-23T13:23:43;1.67;;;1.57;;
3337;SDS011;1682;49.286;10.788;2023-04-23T13:26:12;1.00;;;0.90;;
3337;SDS011;1682;49.286;10.788;2023-04-23T13:28:39;2.08;;;1.60;;
3337;SDS011;1682;49.286;10.788;2023-04-23T13:31:06;1.50;;;1.40;;
3337;SDS011;1682;49.286;10.788;2023-04-23T13:33:36;2.45;;;1.58;;
3337;SDS011;1682;49.286;10.788;2023-04-23T13:36:03;2.10;;;1.60;;
3337;SDS011;1682;49.286;10.788;2023-04-23T13:38:30;2.63;;;2.40;;
3337;SDS011;1682;49.286;10.788;2023-04-23T13:40:58;3.35;;;2.70;;
3337;SDS011;1682;49.286;10.788;2023-04-23T13:43:26;0.90;;;0.90;;
3337;SDS011;1682;49.286;10.788;2023-04-23T13:45:54;3.05;;;1.52;;
3337;SDS011;1682;49.286;10.788;2023-04-23T13:48:21;1.40;;;1.30;;
3337;SDS011;1682;49.286;10.788;2023-04-23T13:50:53;3.40;;;2.92;;
3337;SDS011;1682;49.286;10.788;2023-04-23T13:53:20;1.35;;;1.25;;
3337;SDS011;1682;49.286;10.788;2023-04-23T13:55:47;1.42;;;1.33;;
3337;SDS011;1682;49.286;10.788;2023-04-23T13:58:15;1.00;;;1.00;;
3337;SDS011;1682;49.286;10.788;2023-04-23T14:00:44;1.35;;;1.00;;
3337;SDS011;1682;49.286;10.788;2023-04-23T14:03:12;1.50;;;1.40;;
3337;SDS011;1682;49.286;10.788;2023-04-23T14:05:39;1.30;;;1.20;;
3337;SDS011;1682;49.286;10.788;2023-04-23T14:08:06;3.38;;;1.13;;
3337;SDS011;1682;49.286;10.788;2023-04-23T14:10:34;6.95;;;1.95;;
3337;SDS011;1682;49.286;10.788;2023-04-23T14:13:01;1.98;;;1.45;;
3337;SDS011;1682;49.286;10.788;2023-04-23T14:15:28;7.30;;;2.85;;
3337;SDS011;1682;49.286;10.788;2023-04-23T14:17:57;7.28;;;2.33;;
3337;SDS011;1682;49.286;10.788;2023-04-23T14:20:25;1.00;;;1.00;;
3337;SDS011;1682;49.286;10.788;2023-04-23T14:22:54;2.57;;;1.60;;
3337;SDS011;1682;49.286;10.788;2023-04-23T14:25:28;4.63;;;1.83;;
3337;SDS011;1682;49.286;10.788;2023-04-23T14:27:56;2.20;;;1.40;;
3337;SDS011;1682;49.286;10.788;2023-04-23T14:30:23;1.67;;;1.58;;
3337;SDS011;1682;49.286;10.788;2023-04-23T14:32:53;4.22;;;3.45;;
3337;SDS011;1682;49.286;10.788;2023-04-23T14:35:23;8.50;;;4.63;;
3337;SDS011;1682;49.286;10.788;2023-04-23T14:37:50;1.55;;;1.00;;
3337;SDS011;1682;49.286;10.788;2023-04-23T14:40:18;0.93;;;0.82;;
3337;SDS011;1682;49.286;10.788;2023-04-23T14:42:46;1.48;;;1.38;;
3337;SDS011;1682;49.286;10.788;2023-04-23T14:45:13;1.58;;;1.48;;
3337;SDS011;1682;49.286;10.788;2023-04-23T14:47:42;3.65;;;2.55;;
3337;SDS011;1682;49.286;10.788;2023-04-23T14:50:12;2.47;;;2.00;;
3337;SDS011;1682;49.286;10.788;2023-04-23T14:52:41;3.05;;;1.95;;
3337;SDS011;1682;49.286;10.788;2023-04-23T14:55:10;2.20;;;1.15;;
3337;SDS011;1682;49.286;10.788;2023-04-23T14:57:37;1.73;;;1.60;;
3337;SDS011;1682;49.286;10.788;2023-04-23T15:00:05;2.42;;;2.22;;
3337;SDS011;1682;49.286;10.788;2023-04-23T15:02:37;1.50;;;1.40;;
3337;SDS011;1682;49.286;10.788;2023-04-23T15:05:05;1.00;;;0.90;;
3337;SDS011;1682;49.286;10.788;2023-04-23T15:07:33;1.30;;;1.20;;
3337;SDS011;1682;49.286;10.788;2023-04-23T15:10:01;5.00;;;3.33;;
3337;SDS011;1682;49.286;10.788;2023-04-23T15:12:41;2.50;;;1.20;;
3337;SDS011;1682;49.286;10.788;2023-04-23T15:15:13;2.57;;;2.37;;